sensor_id;sensor_type;location;lat;lon;timestamp;temperature;humidity
827;DHT22;395;48.132;11.608;2023-04-30T00:01:39;13.90;1.00
827;DHT22;395;48.132;11.608;2023-04-30T00:04:05;14.10;1.00
827;DHT22;395;48.132;11.608;2023-04-30T00:06:31;14.10;1.00
827;DHT22;395;48.132;11.608;2023-04-30T00:08:56;14.00;1.00
827;DHT22;395;48.132;11.608;2023-04-30T00:11:22;13.90;1.00
827;DHT22;395;48.132;11.608;2023-04-30T00:13:50;14.00;1.00
827;DHT22;395;48.132;11.608;2023-04-30T00:16:16;14.10;1.00
827;DHT22;395;48.132;11.608;2023-04-30T00:18:42;14.10;1.00
827;DHT22;395;48.132;11.608;2023-04-30T00:21:08;14.20;1.00
827;DHT22;395;48.132;11.608;2023-04-30T00:23:33;14.20;1.00
827;DHT22;395;48.132;11.608;2023-04-30T00:25:59;14.10;1.00
827;DHT22;395;48.132;11.608;2023-04-30T00:28:25;14.20;1.00
827;DHT22;395;48.132;11.608;2023-04-30T00:30:50;14.20;1.00
827;DHT22;395;48.132;11.608;2023-04-30T00:33:16;14.30;1.00
827;DHT22;395;48.132;11.608;2023-04-30T00:35:42;14.30;1.00
827;DHT22;395;48.132;11.608;2023-04-30T00:38:07;14.30;1.00
827;DHT22;395;48.132;11.608;2023-04-30T00:40:34;14.30;1.00
827;DHT22;395;48.132;11.608;2023-04-30T00:43:00;14.30;1.00
827;DHT22;395;48.132;11.608;2023-04-30T00:45:26;14.30;1.00
827;DHT22;395;48.132;11.608;2023-04-30T00:47:51;14.30;1.00
827;DHT22;395;48.132;11.608;2023-04-30T00:50:17;14.30;1.00
827;DHT22;395;48.132;11.608;2023-04-30T00:52:43;14.30;1.00
827;DHT22;395;48.132;11.608;2023-04-30T00:55:12;14.30;1.00
827;DHT22;395;48.132;11.608;2023-04-30T00:57:38;14.30;1.00
827;DHT22;395;48.132;11.608;2023-04-30T01:00:06;14.30;1.00
827;DHT22;395;48.132;11.608;2023-04-30T01:02:35;14.30;1.00
827;DHT22;395;48.132;11.608;2023-04-30T01:05:02;14.30;1.00
827;DHT22;395;48.132;11.608;2023-04-30T01:07:28;14.30;1.00
827;DHT22;395;48.132;11.608;2023-04-30T01:09:54;14.30;1.00
827;DHT22;395;48.132;11.608;2023-04-30T01:18:12;14.30;1.00
827;DHT22;395;48.132;11.608;2023-04-30T01:20:43;14.30;1.00
827;DHT22;395;48.132;11.608;2023-04-30T01:26:16;14.30;1.00
827;DHT22;395;48.132;11.608;2023-04-30T01:28:45;14.20;1.00
827;DHT22;395;48.132;11.608;2023-04-30T01:31:16;14.20;1.00
827;DHT22;395;48.132;11.608;2023-04-30T01:33:42;14.30;1.00
827;DHT22;395;48.132;11.608;2023-04-30T01:44:46;14.20;1.00
827;DHT22;395;48.132;11.608;2023-04-30T01:50:48;14.10;1.00
827;DHT22;395;48.132;11.608;2023-04-30T01:53:22;14.10;1.00
827;DHT22;395;48.132;11.608;2023-04-30T01:55:54;14.10;1.00
827;DHT22;395;48.132;11.608;2023-04-30T01:58:22;14.10;1.00
827;DHT22;395;48.132;11.608;2023-04-30T02:00:49;14.10;1.00
827;DHT22;395;48.132;11.608;2023-04-30T02:03:14;14.10;1.00
827;DHT22;395;48.132;11.608;2023-04-30T02:05:40;14.00;1.00
827;DHT22;395;48.132;11.608;2023-04-30T02:08:06;13.90;1.00
827;DHT22;395;48.132;11.608;2023-04-30T02:10:32;13.80;1.00
827;DHT22;395;48.132;11.608;2023-04-30T02:12:58;13.80;1.00
827;DHT22;395;48.132;11.608;2023-04-30T02:15:24;13.80;1.00
827;DHT22;395;48.132;11.608;2023-04-30T02:17:50;13.80;1.00
827;DHT22;395;48.132;11.608;2023-04-30T02:20:15;13.90;1.00
827;DHT22;395;48.132;11.608;2023-04-30T02:22:41;13.80;1.00
827;DHT22;395;48.132;11.608;2023-04-30T02:25:07;13.80;1.00
827;DHT22;395;48.132;11.608;2023-04-30T02:27:33;13.90;1.00
827;DHT22;395;48.132;11.608;2023-04-30T02:29:59;13.90;1.00
827;DHT22;395;48.132;11.608;2023-04-30T02:32:25;13.90;1.00
827;DHT22;395;48.132;11.608;2023-04-30T02:34:50;13.90;1.00
827;DHT22;395;48.132;11.608;2023-04-30T02:37:16;13.90;1.00
827;DHT22;395;48.132;11.608;2023-04-30T02:39:42;13.90;1.00
827;DHT22;395;48.132;11.608;2023-04-30T02:42:07;13.90;1.00
827;DHT22;395;48.132;11.608;2023-04-30T02:44:33;13.90;1.00
827;DHT22;395;48.132;11.608;2023-04-30T02:46:59;13.90;1.00
827;DHT22;395;48.132;11.608;2023-04-30T02:49:25;13.90;1.00
827;DHT22;395;48.132;11.608;2023-04-30T02:51:51;13.80;1.00
827;DHT22;395;48.132;11.608;2023-04-30T02:54:17;13.80;1.00
827;DHT22;395;48.132;11.608;2023-04-30T02:56:43;13.90;1.00
827;DHT22;395;48.132;11.608;2023-04-30T02:59:09;13.90;1.00
827;DHT22;395;48.132;11.608;2023-04-30T03:01:35;13.90;1.00
827;DHT22;395;48.132;11.608;2023-04-30T03:04:01;13.80;1.00
827;DHT22;395;48.132;11.608;2023-04-30T03:06:32;13.80;1.00
827;DHT22;395;48.132;11.608;2023-04-30T03:08:59;13.70;1.00
827;DHT22;395;48.132;11.608;2023-04-30T03:11:25;13.60;1.00
827;DHT22;395;48.132;11.608;2023-04-30T03:13:51;13.60;1.00
827;DHT22;395;48.132;11.608;2023-04-30T03:16:18;13.40;1.00
827;DHT22;395;48.132;11.608;2023-04-30T03:18:45;13.40;1.00
827;DHT22;395;48.132;11.608;2023-04-30T03:21:10;13.50;1.00
827;DHT22;395;48.132;11.608;2023-04-30T03:23:36;13.60;1.00
827;DHT22;395;48.132;11.608;2023-04-30T03:26:02;13.60;1.00
827;DHT22;395;48.132;11.608;2023-04-30T03:28:27;13.60;1.00
827;DHT22;395;48.132;11.608;2023-04-30T03:30:53;13.60;1.00
827;DHT22;395;48.132;11.608;2023-04-30T03:33:19;13.60;1.00
827;DHT22;395;48.132;11.608;2023-04-30T03:35:45;13.60;1.00
827;DHT22;395;48.132;11.608;2023-04-30T03:38:10;13.60;1.00
827;DHT22;395;48.132;11.608;2023-04-30T03:40:36;13.60;1.00
827;DHT22;395;48.132;11.608;2023-04-30T03:43:02;13.60;1.00
827;DHT22;395;48.132;11.608;2023-04-30T03:45:27;13.60;1.00
827;DHT22;395;48.132;11.608;2023-04-30T03:47:53;13.60;1.00
827;DHT22;395;48.132;11.608;2023-04-30T03:50:19;13.50;1.00
827;DHT22;395;48.132;11.608;2023-04-30T03:52:44;13.50;1.00
827;DHT22;395;48.132;11.608;2023-04-30T03:55:10;13.50;1.00
827;DHT22;395;48.132;11.608;2023-04-30T03:57:37;13.50;1.00
827;DHT22;395;48.132;11.608;2023-04-30T04:00:03;13.50;1.00
827;DHT22;395;48.132;11.608;2023-04-30T04:02:32;13.50;1.00
827;DHT22;395;48.132;11.608;2023-04-30T04:04:58;13.50;1.00
827;DHT22;395;48.132;11.608;2023-04-30T04:07:24;13.50;1.00
827;DHT22;395;48.132;11.608;2023-04-30T04:09:50;13.50;1.00
827;DHT22;395;48.132;11.608;2023-04-30T04:12:15;13.50;1.00
827;DHT22;395;48.132;11.608;2023-04-30T04:14:41;13.50;1.00
827;DHT22;395;48.132;11.608;2023-04-30T04:17:07;13.50;1.00
827;DHT22;395;48.132;11.608;2023-04-30T04:19:32;13.50;1.00
827;DHT22;395;48.132;11.608;2023-04-30T04:21:58;13.50;1.00
827;DHT22;395;48.132;11.608;2023-04-30T04:24:24;13.50;1.00
827;DHT22;395;48.132;11.608;2023-04-30T04:26:50;13.50;1.00
827;DHT22;395;48.132;11.608;2023-04-30T04:29:16;13.50;1.00
827;DHT22;395;48.132;11.608;2023-04-30T04:31:42;13.50;1.00
827;DHT22;395;48.132;11.608;2023-04-30T04:34:08;13.50;1.00
827;DHT22;395;48.132;11.608;2023-04-30T04:36:34;13.50;1.00
827;DHT22;395;48.132;11.608;2023-04-30T04:39:00;13.50;1.00
827;DHT22;395;48.132;11.608;2023-04-30T04:41:35;13.60;1.00
827;DHT22;395;48.132;11.608;2023-04-30T04:44:01;13.60;1.00
827;DHT22;395;48.132;11.608;2023-04-30T04:46:28;13.50;1.00
827;DHT22;395;48.132;11.608;2023-04-30T04:48:54;13.50;1.00
827;DHT22;395;48.132;11.608;2023-04-30T04:51:20;13.50;1.00
827;DHT22;395;48.132;11.608;2023-04-30T04:53:45;13.50;1.00
827;DHT22;395;48.132;11.608;2023-04-30T04:56:11;13.50;1.00
827;DHT22;395;48.132;11.608;2023-04-30T04:58:37;13.50;1.00
827;DHT22;395;48.132;11.608;2023-04-30T05:01:03;13.50;1.00
827;DHT22;395;48.132;11.608;2023-04-30T05:03:33;13.50;1.00
827;DHT22;395;48.132;11.608;2023-04-30T05:05:58;13.60;1.00
827;DHT22;395;48.132;11.608;2023-04-30T05:08:24;13.50;1.00
827;DHT22;395;48.132;11.608;2023-04-30T05:10:50;13.50;1.00
827;DHT22;395;48.132;11.608;2023-04-30T05:13:16;13.60;1.00
827;DHT22;395;48.132;11.608;2023-04-30T05:15:41;13.50;1.00
827;DHT22;395;48.132;11.608;2023-04-30T05:18:07;13.50;1.00
827;DHT22;395;48.132;11.608;2023-04-30T05:20:32;13.50;1.00
827;DHT22;395;48.132;11.608;2023-04-30T05:22:58;13.60;1.00
827;DHT22;395;48.132;11.608;2023-04-30T05:25:24;13.60;1.00
827;DHT22;395;48.132;11.608;2023-04-30T05:27:49;13.60;1.00
827;DHT22;395;48.132;11.608;2023-04-30T05:30:15;13.60;1.00
827;DHT22;395;48.132;11.608;2023-04-30T05:32:41;13.60;1.00
827;DHT22;395;48.132;11.608;2023-04-30T05:35:08;13.60;1.00
827;DHT22;395;48.132;11.608;2023-04-30T05:37:34;13.60;1.00
827;DHT22;395;48.132;11.608;2023-04-30T05:39:59;13.60;1.00
827;DHT22;395;48.132;11.608;2023-04-30T05:42:25;13.70;1.00
827;DHT22;395;48.132;11.608;2023-04-30T05:44:51;13.70;1.00
827;DHT22;395;48.132;11.608;2023-04-30T05:47:16;13.70;1.00
827;DHT22;395;48.132;11.608;2023-04-30T05:49:42;13.80;1.00
827;DHT22;395;48.132;11.608;2023-04-30T05:52:08;13.80;1.00
827;DHT22;395;48.132;11.608;2023-04-30T05:54:33;13.80;1.00
827;DHT22;395;48.132;11.608;2023-04-30T05:56:59;13.80;1.00
827;DHT22;395;48.132;11.608;2023-04-30T05:59:25;13.80;1.00
827;DHT22;395;48.132;11.608;2023-04-30T06:01:51;13.80;1.00
827;DHT22;395;48.132;11.608;2023-04-30T06:04:17;13.80;1.00
827;DHT22;395;48.132;11.608;2023-04-30T06:06:43;13.90;1.00
827;DHT22;395;48.132;11.608;2023-04-30T06:09:08;13.90;1.00
827;DHT22;395;48.132;11.608;2023-04-30T06:11:35;13.90;1.00
827;DHT22;395;48.132;11.608;2023-04-30T06:14:02;13.90;1.00
827;DHT22;395;48.132;11.608;2023-04-30T06:16:28;13.90;1.00
827;DHT22;395;48.132;11.608;2023-04-30T06:18:54;14.00;1.00
827;DHT22;395;48.132;11.608;2023-04-30T06:21:19;14.00;1.00
827;DHT22;395;48.132;11.608;2023-04-30T06:23:45;14.00;1.00
827;DHT22;395;48.132;11.608;2023-04-30T06:26:11;14.10;1.00
827;DHT22;395;48.132;11.608;2023-04-30T06:28:39;14.10;1.00
827;DHT22;395;48.132;11.608;2023-04-30T06:31:05;14.20;1.00
827;DHT22;395;48.132;11.608;2023-04-30T06:33:30;14.20;1.00
827;DHT22;395;48.132;11.608;2023-04-30T06:35:56;14.20;1.00
827;DHT22;395;48.132;11.608;2023-04-30T06:38:21;14.30;1.00
827;DHT22;395;48.132;11.608;2023-04-30T06:40:47;14.30;1.00
827;DHT22;395;48.132;11.608;2023-04-30T06:43:13;14.30;1.00
827;DHT22;395;48.132;11.608;2023-04-30T06:45:38;14.40;1.00
827;DHT22;395;48.132;11.608;2023-04-30T06:48:04;14.40;1.00
827;DHT22;395;48.132;11.608;2023-04-30T06:50:30;14.40;1.00
827;DHT22;395;48.132;11.608;2023-04-30T06:52:56;14.50;1.00
827;DHT22;395;48.132;11.608;2023-04-30T06:55:22;14.50;1.00
827;DHT22;395;48.132;11.608;2023-04-30T06:57:47;14.50;1.00
827;DHT22;395;48.132;11.608;2023-04-30T07:00:13;14.50;1.00
827;DHT22;395;48.132;11.608;2023-04-30T07:02:40;14.50;1.00
827;DHT22;395;48.132;11.608;2023-04-30T07:05:06;14.50;1.00
827;DHT22;395;48.132;11.608;2023-04-30T07:07:31;14.50;1.00
827;DHT22;395;48.132;11.608;2023-04-30T07:09:58;14.50;1.00
827;DHT22;395;48.132;11.608;2023-04-30T07:12:23;14.60;1.00
827;DHT22;395;48.132;11.608;2023-04-30T07:14:49;14.60;1.00
827;DHT22;395;48.132;11.608;2023-04-30T07:17:15;14.60;1.00
827;DHT22;395;48.132;11.608;2023-04-30T07:19:40;14.50;1.00
827;DHT22;395;48.132;11.608;2023-04-30T07:22:06;14.60;1.00
827;DHT22;395;48.132;11.608;2023-04-30T07:24:32;14.60;1.00
827;DHT22;395;48.132;11.608;2023-04-30T07:26:58;14.60;1.00
827;DHT22;395;48.132;11.608;2023-04-30T07:29:27;14.60;1.00
827;DHT22;395;48.132;11.608;2023-04-30T07:31:54;14.60;1.00
827;DHT22;395;48.132;11.608;2023-04-30T07:34:20;14.70;1.00
827;DHT22;395;48.132;11.608;2023-04-30T07:36:47;14.70;1.00
827;DHT22;395;48.132;11.608;2023-04-30T07:39:12;14.70;1.00
827;DHT22;395;48.132;11.608;2023-04-30T07:41:38;14.70;1.00
827;DHT22;395;48.132;11.608;2023-04-30T07:44:04;14.70;1.00
827;DHT22;395;48.132;11.608;2023-04-30T07:46:29;14.80;1.00
827;DHT22;395;48.132;11.608;2023-04-30T07:48:55;14.80;1.00
827;DHT22;395;48.132;11.608;2023-04-30T07:51:21;14.90;1.00
827;DHT22;395;48.132;11.608;2023-04-30T07:53:46;14.90;1.00
827;DHT22;395;48.132;11.608;2023-04-30T07:56:12;14.90;1.00
827;DHT22;395;48.132;11.608;2023-04-30T07:58:37;14.90;1.00
827;DHT22;395;48.132;11.608;2023-04-30T08:01:03;14.90;1.00
827;DHT22;395;48.132;11.608;2023-04-30T08:03:29;14.90;1.00
827;DHT22;395;48.132;11.608;2023-04-30T08:05:54;15.00;1.00
827;DHT22;395;48.132;11.608;2023-04-30T08:08:20;15.00;1.00
827;DHT22;395;48.132;11.608;2023-04-30T08:10:46;15.00;1.00
827;DHT22;395;48.132;11.608;2023-04-30T08:13:11;15.00;1.00
827;DHT22;395;48.132;11.608;2023-04-30T08:15:37;15.00;1.00
827;DHT22;395;48.132;11.608;2023-04-30T08:18:04;15.00;1.00
827;DHT22;395;48.132;11.608;2023-04-30T08:20:31;15.00;1.00
827;DHT22;395;48.132;11.608;2023-04-30T08:22:57;15.00;1.00
827;DHT22;395;48.132;11.608;2023-04-30T08:25:24;15.10;1.00
827;DHT22;395;48.132;11.608;2023-04-30T08:27:50;15.10;1.00
827;DHT22;395;48.132;11.608;2023-04-30T08:30:15;15.20;1.00
827;DHT22;395;48.132;11.608;2023-04-30T08:32:41;15.10;1.00
827;DHT22;395;48.132;11.608;2023-04-30T08:35:07;15.10;1.00
827;DHT22;395;48.132;11.608;2023-04-30T08:37:33;15.10;1.00
827;DHT22;395;48.132;11.608;2023-04-30T08:39:59;15.10;1.00
827;DHT22;395;48.132;11.608;2023-04-30T08:42:29;15.10;1.00
827;DHT22;395;48.132;11.608;2023-04-30T08:44:55;15.20;1.00
827;DHT22;395;48.132;11.608;2023-04-30T08:47:22;15.30;1.00
827;DHT22;395;48.132;11.608;2023-04-30T08:49:48;15.30;1.00
827;DHT22;395;48.132;11.608;2023-04-30T08:52:14;15.30;1.00
827;DHT22;395;48.132;11.608;2023-04-30T08:54:41;15.40;1.00
827;DHT22;395;48.132;11.608;2023-04-30T08:57:09;15.40;1.00
827;DHT22;395;48.132;11.608;2023-04-30T08:59:34;15.40;1.00
827;DHT22;395;48.132;11.608;2023-04-30T09:02:00;15.40;1.00
827;DHT22;395;48.132;11.608;2023-04-30T09:04:26;15.40;1.00
827;DHT22;395;48.132;11.608;2023-04-30T09:06:53;15.40;1.00
827;DHT22;395;48.132;11.608;2023-04-30T09:09:29;15.40;1.00
827;DHT22;395;48.132;11.608;2023-04-30T09:12:17;15.50;1.00
827;DHT22;395;48.132;11.608;2023-04-30T09:15:05;15.50;1.00
827;DHT22;395;48.132;11.608;2023-04-30T09:17:33;15.50;1.00
827;DHT22;395;48.132;11.608;2023-04-30T09:20:10;15.60;1.00
827;DHT22;395;48.132;11.608;2023-04-30T09:22:37;15.50;1.00
827;DHT22;395;48.132;11.608;2023-04-30T09:25:04;15.60;1.00
827;DHT22;395;48.132;11.608;2023-04-30T09:27:30;15.60;1.00
827;DHT22;395;48.132;11.608;2023-04-30T09:29:55;15.70;1.00
827;DHT22;395;48.132;11.608;2023-04-30T09:32:21;15.70;1.00
827;DHT22;395;48.132;11.608;2023-04-30T09:34:47;15.70;1.00
827;DHT22;395;48.132;11.608;2023-04-30T09:37:12;15.70;1.00
827;DHT22;395;48.132;11.608;2023-04-30T09:39:48;15.70;1.00
827;DHT22;395;48.132;11.608;2023-04-30T09:42:15;15.70;1.00
827;DHT22;395;48.132;11.608;2023-04-30T09:44:41;15.70;1.00
827;DHT22;395;48.132;11.608;2023-04-30T09:47:15;15.80;1.00
827;DHT22;395;48.132;11.608;2023-04-30T09:49:42;15.80;1.00
827;DHT22;395;48.132;11.608;2023-04-30T09:52:09;15.90;1.00
827;DHT22;395;48.132;11.608;2023-04-30T09:54:36;15.90;1.00
827;DHT22;395;48.132;11.608;2023-04-30T09:57:02;15.90;1.00
827;DHT22;395;48.132;11.608;2023-04-30T09:59:34;15.90;1.00
827;DHT22;395;48.132;11.608;2023-04-30T10:02:03;15.90;1.00
827;DHT22;395;48.132;11.608;2023-04-30T10:04:32;15.90;1.00
827;DHT22;395;48.132;11.608;2023-04-30T10:07:01;16.00;1.00
827;DHT22;395;48.132;11.608;2023-04-30T10:09:30;16.00;1.00
827;DHT22;395;48.132;11.608;2023-04-30T10:11:59;16.00;1.00
827;DHT22;395;48.132;11.608;2023-04-30T10:14:29;15.90;1.00
827;DHT22;395;48.132;11.608;2023-04-30T10:17:06;16.00;1.00
827;DHT22;395;48.132;11.608;2023-04-30T10:19:34;16.00;1.00
827;DHT22;395;48.132;11.608;2023-04-30T10:22:00;16.00;1.00
827;DHT22;395;48.132;11.608;2023-04-30T10:24:26;16.00;1.00
827;DHT22;395;48.132;11.608;2023-04-30T10:26:52;16.00;1.00
827;DHT22;395;48.132;11.608;2023-04-30T10:29:19;16.00;1.00
827;DHT22;395;48.132;11.608;2023-04-30T10:31:49;16.10;1.00
827;DHT22;395;48.132;11.608;2023-04-30T10:34:35;16.10;1.00
827;DHT22;395;48.132;11.608;2023-04-30T10:37:06;16.10;1.00
827;DHT22;395;48.132;11.608;2023-04-30T10:39:36;16.20;1.00
827;DHT22;395;48.132;11.608;2023-04-30T10:42:04;16.20;1.00
827;DHT22;395;48.132;11.608;2023-04-30T10:44:35;16.20;1.00
827;DHT22;395;48.132;11.608;2023-04-30T10:47:01;16.10;1.00
827;DHT22;395;48.132;11.608;2023-04-30T10:49:28;16.10;1.00
827;DHT22;395;48.132;11.608;2023-04-30T10:51:54;16.20;1.00
827;DHT22;395;48.132;11.608;2023-04-30T10:54:28;16.10;1.00
827;DHT22;395;48.132;11.608;2023-04-30T10:57:15;16.30;1.00
827;DHT22;395;48.132;11.608;2023-04-30T10:59:51;16.20;1.00
827;DHT22;395;48.132;11.608;2023-04-30T11:02:18;16.40;1.00
827;DHT22;395;48.132;11.608;2023-04-30T11:07:31;16.50;1.00
827;DHT22;395;48.132;11.608;2023-04-30T11:09:57;16.40;1.00
827;DHT22;395;48.132;11.608;2023-04-30T11:12:25;16.40;1.00
827;DHT22;395;48.132;11.608;2023-04-30T11:15:05;16.40;1.00
827;DHT22;395;48.132;11.608;2023-04-30T11:17:32;16.40;1.00
827;DHT22;395;48.132;11.608;2023-04-30T11:19:59;16.50;1.00
827;DHT22;395;48.132;11.608;2023-04-30T11:22:26;16.40;1.00
827;DHT22;395;48.132;11.608;2023-04-30T11:27:27;16.50;1.00
827;DHT22;395;48.132;11.608;2023-04-30T11:29:54;16.50;1.00
827;DHT22;395;48.132;11.608;2023-04-30T11:32:21;16.60;1.00
827;DHT22;395;48.132;11.608;2023-04-30T11:34:48;16.60;1.00
827;DHT22;395;48.132;11.608;2023-04-30T11:37:41;16.50;1.00
827;DHT22;395;48.132;11.608;2023-04-30T11:40:12;16.50;1.00
827;DHT22;395;48.132;11.608;2023-04-30T11:42:40;16.50;1.00
827;DHT22;395;48.132;11.608;2023-04-30T11:45:11;16.50;1.00
827;DHT22;395;48.132;11.608;2023-04-30T11:47:44;16.50;1.00
827;DHT22;395;48.132;11.608;2023-04-30T11:50:12;16.50;1.00
827;DHT22;395;48.132;11.608;2023-04-30T11:52:38;16.50;1.00
827;DHT22;395;48.132;11.608;2023-04-30T11:55:16;16.60;1.00
827;DHT22;395;48.132;11.608;2023-04-30T11:57:43;16.60;1.00
827;DHT22;395;48.132;11.608;2023-04-30T12:00:10;16.60;1.00
827;DHT22;395;48.132;11.608;2023-04-30T12:02:36;16.70;1.00
827;DHT22;395;48.132;11.608;2023-04-30T12:05:02;16.70;1.00
827;DHT22;395;48.132;11.608;2023-04-30T12:07:28;16.70;1.00
827;DHT22;395;48.132;11.608;2023-04-30T12:09:54;16.60;1.00
827;DHT22;395;48.132;11.608;2023-04-30T12:12:28;16.70;1.00
827;DHT22;395;48.132;11.608;2023-04-30T12:14:53;16.80;1.00
827;DHT22;395;48.132;11.608;2023-04-30T12:17:34;16.80;1.00
827;DHT22;395;48.132;11.608;2023-04-30T12:20:00;16.90;1.00
827;DHT22;395;48.132;11.608;2023-04-30T12:22:27;16.80;1.00
827;DHT22;395;48.132;11.608;2023-04-30T12:24:54;16.90;1.00
827;DHT22;395;48.132;11.608;2023-04-30T12:27:21;16.90;1.00
827;DHT22;395;48.132;11.608;2023-04-30T12:29:47;16.90;1.00
827;DHT22;395;48.132;11.608;2023-04-30T12:32:16;16.80;1.00
827;DHT22;395;48.132;11.608;2023-04-30T12:34:43;17.00;1.00
827;DHT22;395;48.132;11.608;2023-04-30T12:37:09;16.90;1.00
827;DHT22;395;48.132;11.608;2023-04-30T12:39:35;16.90;1.00
827;DHT22;395;48.132;11.608;2023-04-30T12:42:02;16.90;1.00
827;DHT22;395;48.132;11.608;2023-04-30T12:44:28;16.80;1.00
827;DHT22;395;48.132;11.608;2023-04-30T12:46:55;16.80;1.00
827;DHT22;395;48.132;11.608;2023-04-30T12:49:43;16.90;1.00
827;DHT22;395;48.132;11.608;2023-04-30T12:52:11;17.00;1.00
827;DHT22;395;48.132;11.608;2023-04-30T12:54:37;17.00;1.00
827;DHT22;395;48.132;11.608;2023-04-30T12:57:09;17.10;1.00
827;DHT22;395;48.132;11.608;2023-04-30T12:59:39;17.00;1.00
827;DHT22;395;48.132;11.608;2023-04-30T13:02:05;17.00;1.00
827;DHT22;395;48.132;11.608;2023-04-30T13:04:32;17.00;1.00
827;DHT22;395;48.132;11.608;2023-04-30T13:06:58;17.10;1.00
827;DHT22;395;48.132;11.608;2023-04-30T13:09:24;17.10;1.00
827;DHT22;395;48.132;11.608;2023-04-30T13:11:50;17.00;1.00
827;DHT22;395;48.132;11.608;2023-04-30T13:14:16;17.10;1.00
827;DHT22;395;48.132;11.608;2023-04-30T13:16:42;17.00;1.00
827;DHT22;395;48.132;11.608;2023-04-30T13:19:08;17.00;1.00
827;DHT22;395;48.132;11.608;2023-04-30T13:21:34;17.00;1.00
827;DHT22;395;48.132;11.608;2023-04-30T13:23:59;17.00;1.00
827;DHT22;395;48.132;11.608;2023-04-30T13:26:27;17.00;1.00
827;DHT22;395;48.132;11.608;2023-04-30T13:28:53;17.00;1.00
827;DHT22;395;48.132;11.608;2023-04-30T13:31:19;17.10;1.00
827;DHT22;395;48.132;11.608;2023-04-30T13:33:44;17.10;1.00
827;DHT22;395;48.132;11.608;2023-04-30T13:36:10;17.20;1.00
827;DHT22;395;48.132;11.608;2023-04-30T13:38:36;17.20;1.00
827;DHT22;395;48.132;11.608;2023-04-30T13:41:04;17.20;1.00
827;DHT22;395;48.132;11.608;2023-04-30T13:43:29;17.30;1.00
827;DHT22;395;48.132;11.608;2023-04-30T13:45:56;17.30;1.00
827;DHT22;395;48.132;11.608;2023-04-30T13:48:23;17.30;1.00
827;DHT22;395;48.132;11.608;2023-04-30T13:50:50;17.40;1.00
827;DHT22;395;48.132;11.608;2023-04-30T13:53:16;17.50;1.00
827;DHT22;395;48.132;11.608;2023-04-30T13:55:41;17.50;1.00
827;DHT22;395;48.132;11.608;2023-04-30T13:58:07;17.50;1.00
827;DHT22;395;48.132;11.608;2023-04-30T14:00:33;17.60;1.00
827;DHT22;395;48.132;11.608;2023-04-30T14:02:58;17.60;1.00
827;DHT22;395;48.132;11.608;2023-04-30T14:05:24;17.50;1.00
827;DHT22;395;48.132;11.608;2023-04-30T14:07:50;17.60;1.00
827;DHT22;395;48.132;11.608;2023-04-30T14:10:15;17.60;1.00
827;DHT22;395;48.132;11.608;2023-04-30T14:12:41;17.70;1.00
827;DHT22;395;48.132;11.608;2023-04-30T14:15:07;17.70;1.00
827;DHT22;395;48.132;11.608;2023-04-30T14:17:33;17.80;1.00
827;DHT22;395;48.132;11.608;2023-04-30T14:19:58;17.80;1.00
827;DHT22;395;48.132;11.608;2023-04-30T14:22:24;17.80;1.00
827;DHT22;395;48.132;11.608;2023-04-30T14:24:51;17.80;1.00
827;DHT22;395;48.132;11.608;2023-04-30T14:27:19;17.90;1.00
827;DHT22;395;48.132;11.608;2023-04-30T14:29:46;17.90;1.00
827;DHT22;395;48.132;11.608;2023-04-30T14:32:12;18.10;1.00
827;DHT22;395;48.132;11.608;2023-04-30T14:34:41;18.00;1.00
827;DHT22;395;48.132;11.608;2023-04-30T14:37:07;18.00;1.00
827;DHT22;395;48.132;11.608;2023-04-30T14:39:32;18.20;1.00
827;DHT22;395;48.132;11.608;2023-04-30T14:41:58;18.40;1.00
827;DHT22;395;48.132;11.608;2023-04-30T14:44:24;18.50;1.00
827;DHT22;395;48.132;11.608;2023-04-30T14:46:51;18.50;1.00
827;DHT22;395;48.132;11.608;2023-04-30T14:49:16;18.50;1.00
827;DHT22;395;48.132;11.608;2023-04-30T14:51:42;18.40;1.00
827;DHT22;395;48.132;11.608;2023-04-30T14:54:08;18.40;1.00
827;DHT22;395;48.132;11.608;2023-04-30T14:56:34;18.40;1.00
827;DHT22;395;48.132;11.608;2023-04-30T14:59:00;18.30;1.00
827;DHT22;395;48.132;11.608;2023-04-30T15:01:26;18.20;1.00
827;DHT22;395;48.132;11.608;2023-04-30T15:03:52;18.10;1.00
827;DHT22;395;48.132;11.608;2023-04-30T15:06:18;18.20;1.00
827;DHT22;395;48.132;11.608;2023-04-30T15:08:44;18.20;1.00
827;DHT22;395;48.132;11.608;2023-04-30T15:11:09;18.30;1.00
827;DHT22;395;48.132;11.608;2023-04-30T15:13:37;18.20;1.00
827;DHT22;395;48.132;11.608;2023-04-30T15:16:03;18.30;1.00
827;DHT22;395;48.132;11.608;2023-04-30T15:18:29;18.20;1.00
827;DHT22;395;48.132;11.608;2023-04-30T15:20:55;18.20;1.00
827;DHT22;395;48.132;11.608;2023-04-30T15:23:20;18.20;1.00
827;DHT22;395;48.132;11.608;2023-04-30T15:25:47;18.30;1.00
827;DHT22;395;48.132;11.608;2023-04-30T15:28:12;18.40;1.00
827;DHT22;395;48.132;11.608;2023-04-30T15:30:38;18.40;1.00
827;DHT22;395;48.132;11.608;2023-04-30T15:33:04;18.40;1.00
827;DHT22;395;48.132;11.608;2023-04-30T15:35:29;18.40;1.00
827;DHT22;395;48.132;11.608;2023-04-30T15:37:55;18.40;1.00
827;DHT22;395;48.132;11.608;2023-04-30T15:40:21;18.50;1.00
827;DHT22;395;48.132;11.608;2023-04-30T15:42:46;18.50;1.00
827;DHT22;395;48.132;11.608;2023-04-30T15:45:12;18.50;1.00
827;DHT22;395;48.132;11.608;2023-04-30T15:47:38;18.50;1.00
827;DHT22;395;48.132;11.608;2023-04-30T15:50:04;18.50;1.00
827;DHT22;395;48.132;11.608;2023-04-30T15:52:29;18.50;1.00
827;DHT22;395;48.132;11.608;2023-04-30T15:54:55;18.50;1.00
827;DHT22;395;48.132;11.608;2023-04-30T15:57:21;18.50;1.00
827;DHT22;395;48.132;11.608;2023-04-30T15:59:47;18.50;1.00
827;DHT22;395;48.132;11.608;2023-04-30T16:02:15;18.60;1.00
827;DHT22;395;48.132;11.608;2023-04-30T16:04:41;18.60;1.00
827;DHT22;395;48.132;11.608;2023-04-30T16:07:08;18.50;1.00
827;DHT22;395;48.132;11.608;2023-04-30T16:09:34;18.40;1.00
827;DHT22;395;48.132;11.608;2023-04-30T16:12:00;18.50;1.00
827;DHT22;395;48.132;11.608;2023-04-30T16:14:25;18.50;1.00
827;DHT22;395;48.132;11.608;2023-04-30T16:16:51;18.30;1.00
827;DHT22;395;48.132;11.608;2023-04-30T16:19:17;18.40;1.00
827;DHT22;395;48.132;11.608;2023-04-30T16:21:42;18.30;1.00
827;DHT22;395;48.132;11.608;2023-04-30T16:24:09;18.20;1.00
827;DHT22;395;48.132;11.608;2023-04-30T16:26:35;18.30;1.00
827;DHT22;395;48.132;11.608;2023-04-30T16:29:02;18.10;1.00
827;DHT22;395;48.132;11.608;2023-04-30T16:31:29;18.10;1.00
827;DHT22;395;48.132;11.608;2023-04-30T16:33:54;18.00;1.00
827;DHT22;395;48.132;11.608;2023-04-30T16:36:21;18.00;1.00
827;DHT22;395;48.132;11.608;2023-04-30T16:38:46;18.00;1.00
827;DHT22;395;48.132;11.608;2023-04-30T16:41:16;18.10;1.00
827;DHT22;395;48.132;11.608;2023-04-30T16:43:41;18.00;1.00
827;DHT22;395;48.132;11.608;2023-04-30T16:46:08;17.90;1.00
827;DHT22;395;48.132;11.608;2023-04-30T16:48:33;17.90;1.00
827;DHT22;395;48.132;11.608;2023-04-30T16:50:59;17.90;1.00
827;DHT22;395;48.132;11.608;2023-04-30T16:53:25;18.00;1.00
827;DHT22;395;48.132;11.608;2023-04-30T16:55:50;17.90;1.00
827;DHT22;395;48.132;11.608;2023-04-30T16:58:19;17.90;1.00